createdAt,value
2023-01-11T00:00:56.687Z,100830.52
2023-01-11T00:03:09.465Z,100829.54
2023-01-11T00:05:22.047Z,100827.70
2023-01-11T00:07:34.632Z,100829.45
2023-01-11T00:09:47.849Z,100825.34
2023-01-11T00:12:00.433Z,100823.46
2023-01-11T00:14:14.636Z,100822.63
2023-01-11T00:16:27.218Z,100822.83
2023-01-11T00:18:40.982Z,100821.89
2023-01-11T00:20:53.587Z,100816.29
2023-01-11T00:23:06.111Z,100812.59
2023-01-11T00:25:18.701Z,100812.85
2023-01-11T00:27:31.383Z,100812.61
2023-01-11T00:29:44.908Z,100812.02
2023-01-11T00:31:57.529Z,100818.95
2023-01-11T00:34:10.143Z,100821.55
2023-01-11T00:36:22.725Z,100817.80
2023-01-11T00:38:46.462Z,100812.88
2023-01-11T00:41:18.973Z,100817.73
2023-01-11T00:43:49.971Z,100816.41
2023-01-11T00:46:21.027Z,100822.31
2023-01-11T00:48:33.599Z,100825.84
2023-01-11T00:50:46.148Z,100828.58
2023-01-11T00:52:59.674Z,100825.02
2023-01-11T00:55:12.233Z,100822.48
2023-01-11T00:57:24.860Z,100826.65
2023-01-11T00:59:39.455Z,100825.45
2023-01-11T01:01:52.198Z,100820.50
2023-01-11T01:04:05.171Z,100818.81
2023-01-11T01:06:17.939Z,100817.66
2023-01-11T01:08:30.588Z,100817.36
2023-01-11T01:10:43.083Z,100819.95
2023-01-11T01:13:14.256Z,100816.92
2023-01-11T01:15:27.252Z,100818.55
2023-01-11T01:17:39.773Z,100816.35
2023-01-11T01:19:52.364Z,100818.42
2023-01-11T01:22:05.326Z,100817.91
2023-01-11T01:24:19.300Z,100814.82
2023-01-11T01:26:31.972Z,100809.19
2023-01-11T01:28:44.743Z,100805.79
2023-01-11T01:30:57.448Z,100801.84
2023-01-11T01:33:09.965Z,100798.23
2023-01-11T01:35:22.643Z,100799.64
2023-01-11T01:37:35.236Z,100798.27
2023-01-11T01:39:47.804Z,100799.16
2023-01-11T01:42:00.465Z,100799.52
2023-01-11T01:44:50.526Z,100797.48
2023-01-11T01:47:03.973Z,100796.50
2023-01-11T01:49:16.981Z,100793.92
2023-01-11T01:51:38.755Z,100790.00
2023-01-11T01:53:57.267Z,100789.48
2023-01-11T01:56:15.665Z,100788.98
2023-01-11T01:58:36.555Z,100783.67
2023-01-11T02:00:49.096Z,100781.45
2023-01-11T02:03:02.343Z,100779.23
2023-01-11T02:05:17.336Z,100777.86
2023-01-11T02:07:33.827Z,100776.83
2023-01-11T02:10:09.445Z,100778.55
2023-01-11T02:12:24.572Z,100775.30
2023-01-11T02:14:38.758Z,100777.54
2023-01-11T02:16:51.387Z,100774.45
2023-01-11T02:19:05.597Z,100772.73
2023-01-11T02:21:53.558Z,100768.27
2023-01-11T02:24:55.353Z,100761.79
2023-01-11T02:27:21.729Z,100750.49
2023-01-11T02:29:49.392Z,100742.45
2023-01-11T02:32:20.450Z,100737.65
2023-01-11T02:34:41.782Z,100732.86
2023-01-11T02:37:14.843Z,100734.74
2023-01-11T02:39:42.259Z,100723.92
2023-01-11T02:42:22.981Z,100720.67
2023-01-11T02:45:19.165Z,100719.30
2023-01-11T02:47:39.707Z,100716.38
2023-01-11T02:50:06.924Z,100718.61
2023-01-11T02:52:31.828Z,100719.61
2023-01-11T02:54:47.848Z,100718.77
2023-01-11T02:57:02.633Z,100716.52
2023-01-11T02:59:22.677Z,100715.14
2023-01-11T03:01:55.518Z,100711.54
2023-01-11T03:04:26.307Z,100713.95
2023-01-11T03:06:38.900Z,100716.53
2023-01-11T03:09:28.662Z,100715.34
2023-01-11T03:12:09.214Z,100717.06
2023-01-11T03:14:27.737Z,100710.39
2023-01-11T03:16:50.740Z,100705.93
2023-01-11T03:19:21.897Z,100703.05
2023-01-11T03:21:47.082Z,100702.38
2023-01-11T03:24:33.890Z,100701.36
2023-01-11T03:27:13.342Z,100701.38
2023-01-11T03:29:31.246Z,100699.01
2023-01-11T03:31:58.507Z,100698.14
2023-01-11T03:34:29.438Z,100693.35
2023-01-11T03:36:59.871Z,100686.85
2023-01-11T03:39:24.972Z,100687.02
2023-01-11T03:41:40.811Z,100679.31
2023-01-11T03:43:57.126Z,100677.98
2023-01-11T03:46:14.796Z,100670.80
2023-01-11T03:48:31.047Z,100671.14
2023-01-11T03:50:46.051Z,100669.95
2023-01-11T03:53:00.867Z,100668.05
2023-01-11T03:55:16.577Z,100667.71
2023-01-11T03:57:39.576Z,100662.27
2023-01-11T03:59:52.166Z,100656.60
2023-01-11T04:02:05.027Z,100656.27
2023-01-11T04:04:17.708Z,100648.89
2023-01-11T04:06:34.223Z,100651.80
2023-01-11T04:08:46.769Z,100644.63
2023-01-11T04:10:59.576Z,100645.81
2023-01-11T04:13:12.334Z,100645.47
2023-01-11T04:15:24.815Z,100644.79
2023-01-11T04:17:37.416Z,100645.30
2023-01-11T04:19:50.001Z,100643.08
2023-01-11T04:22:02.551Z,100637.43
2023-01-11T04:24:15.257Z,100632.80
2023-01-11T04:26:27.731Z,100632.13
2023-01-11T04:28:40.309Z,100633.49
2023-01-11T04:30:53.544Z,100625.78
2023-01-11T04:33:06.134Z,100629.55
2023-01-11T04:35:18.882Z,100625.10
2023-01-11T04:37:31.427Z,100622.88
2023-01-11T04:39:43.977Z,100621.51
2023-01-11T04:42:15.108Z,100619.80
2023-01-11T04:44:27.598Z,100614.31
2023-01-11T04:46:40.154Z,100613.11
2023-01-11T04:48:52.877Z,100610.55
2023-01-11T04:51:09.802Z,100606.27
2023-01-11T04:53:22.299Z,100603.70
2023-01-11T04:55:36.329Z,100604.55
2023-01-11T04:57:48.928Z,100602.67
2023-01-11T05:00:01.655Z,100599.59
2023-01-11T05:02:15.475Z,100591.72
2023-01-11T05:04:28.122Z,100584.52
2023-01-11T05:06:40.894Z,100578.02
2023-01-11T05:08:53.473Z,100574.60
2023-01-11T05:11:07.992Z,100575.97
2023-01-11T05:13:21.548Z,100574.24
2023-01-11T05:15:34.827Z,100566.04
2023-01-11T05:17:47.403Z,100566.73
2023-01-11T05:19:59.941Z,100565.18
2023-01-11T05:22:12.667Z,100560.70
2023-01-11T05:24:25.216Z,100556.08
2023-01-11T05:26:43.969Z,100559.16
2023-01-11T05:28:59.184Z,100557.45
2023-01-11T05:31:12.912Z,100556.41
2023-01-11T05:33:25.512Z,100554.52
2023-01-11T05:35:38.000Z,100554.34
2023-01-11T05:37:50.555Z,100553.82
2023-01-11T05:40:03.467Z,100556.36
2023-01-11T05:42:16.756Z,100557.05
2023-01-11T05:44:47.663Z,100563.39
2023-01-11T05:47:00.370Z,100566.13
2023-01-11T05:49:14.312Z,100565.79
2023-01-11T05:51:30.603Z,100562.88
2023-01-11T05:53:43.801Z,100558.41
2023-01-11T05:55:58.521Z,100559.10
2023-01-11T05:58:11.075Z,100559.13
2023-01-11T06:00:24.238Z,100559.82
2023-01-11T06:02:37.623Z,100562.90
2023-01-11T06:04:50.356Z,100561.19
2023-01-11T06:07:02.993Z,100551.77
2023-01-11T06:09:15.619Z,100546.29
2023-01-11T06:11:28.378Z,100545.63
2023-01-11T06:13:40.995Z,100545.64
2023-01-11T06:16:01.450Z,100544.27
2023-01-11T06:18:14.612Z,100539.82
2023-01-11T06:20:27.135Z,100531.98
2023-01-11T06:22:39.711Z,100537.61
2023-01-11T06:24:52.237Z,100536.77
2023-01-11T06:27:04.880Z,100535.56
2023-01-11T06:29:17.510Z,100533.34
2023-01-11T06:31:30.037Z,100529.91
2023-01-11T06:33:42.717Z,100527.18
2023-01-11T06:35:56.546Z,100527.69
2023-01-11T06:38:13.786Z,100524.10
2023-01-11T06:40:26.345Z,100515.36
2023-01-11T06:42:38.940Z,100513.67
2023-01-11T06:44:51.458Z,100513.65
2023-01-11T06:47:04.123Z,100511.77
2023-01-11T06:49:16.736Z,100509.20
2023-01-11T06:51:29.282Z,100510.05
2023-01-11T06:53:43.259Z,100509.55
2023-01-11T06:55:58.404Z,100504.57
2023-01-11T06:58:11.386Z,100508.48
2023-01-11T07:00:24.868Z,100509.14
2023-01-11T07:02:37.502Z,100505.17
2023-01-11T07:04:50.160Z,100504.12
2023-01-11T07:07:02.747Z,100503.40
2023-01-11T07:09:15.280Z,100507.83
2023-01-11T07:11:27.889Z,100510.34
2023-01-11T07:13:40.384Z,100507.90
2023-01-11T07:15:57.415Z,100504.95
2023-01-11T07:18:12.853Z,100497.19
2023-01-11T07:20:25.928Z,100496.46
2023-01-11T07:22:38.531Z,100497.46
2023-01-11T07:24:51.895Z,100501.35
2023-01-11T07:27:05.230Z,100502.17
2023-01-11T07:29:17.852Z,100499.55
2023-01-11T07:31:30.549Z,100498.83
2023-01-11T07:33:43.153Z,100504.45
2023-01-11T07:35:55.778Z,100504.40
2023-01-11T07:38:10.173Z,100499.36
2023-01-11T07:40:22.720Z,100498.23
2023-01-11T07:42:54.119Z,100502.41
2023-01-11T07:45:07.290Z,100497.70
2023-01-11T07:47:19.865Z,100495.05
2023-01-11T07:49:32.425Z,100499.79
2023-01-11T07:51:45.003Z,100497.50
2023-01-11T07:53:57.536Z,100502.42
2023-01-11T07:56:10.104Z,100494.95
2023-01-11T07:58:23.586Z,100487.16
2023-01-11T08:00:36.218Z,100486.90
2023-01-11T08:02:52.969Z,100484.58
2023-01-11T08:05:06.109Z,100481.73
2023-01-11T08:07:18.667Z,100476.79
2023-01-11T08:09:31.820Z,100480.29
2023-01-11T08:12:03.085Z,100480.20
2023-01-11T08:14:35.431Z,100476.54
2023-01-11T08:16:48.006Z,100474.57
2023-01-11T08:19:01.562Z,100475.38
2023-01-11T08:21:14.925Z,100471.85
2023-01-11T08:23:27.577Z,100481.58
2023-01-11T08:25:40.526Z,100479.61
2023-01-11T08:27:53.103Z,100476.98
2023-01-11T08:30:06.405Z,100472.12
2023-01-11T08:32:19.007Z,100474.69
2023-01-11T08:34:33.761Z,100473.25
2023-01-11T08:36:47.093Z,100471.62
2023-01-11T08:38:59.686Z,100475.12
2023-01-11T08:41:12.265Z,100476.01
2023-01-11T08:43:24.936Z,100478.95
2023-01-11T08:45:37.592Z,100470.55
2023-01-11T08:47:51.820Z,100471.30
2023-01-11T08:50:05.364Z,100473.17
2023-01-11T08:52:18.286Z,100470.06
2023-01-11T08:54:30.869Z,100464.74
2023-01-11T08:56:43.580Z,100461.93
2023-01-11T08:58:56.151Z,100465.88
2023-01-11T09:01:09.663Z,100472.28
2023-01-11T09:03:22.316Z,100470.68
2023-01-11T09:05:34.829Z,100470.71
2023-01-11T09:07:47.409Z,100470.77
2023-01-11T09:10:00.010Z,100466.83
2023-01-11T09:12:12.964Z,100466.51
2023-01-11T09:14:27.543Z,100465.73
2023-01-11T09:16:40.166Z,100476.32
2023-01-11T09:18:52.809Z,100468.41
2023-01-11T09:21:05.447Z,100471.05
2023-01-11T09:23:18.090Z,100468.25
2023-01-11T09:25:30.724Z,100465.13
2023-01-11T09:27:48.385Z,100458.55
2023-01-11T09:30:02.691Z,100450.20
2023-01-11T09:32:15.217Z,100445.88
2023-01-11T09:34:27.885Z,100440.78
2023-01-11T09:36:40.741Z,100433.64
2023-01-11T09:38:56.822Z,100433.18
2023-01-11T09:41:26.810Z,100426.75
2023-01-11T09:43:50.101Z,100423.88
2023-01-11T09:46:08.490Z,100414.71
2023-01-11T09:48:47.971Z,100418.70
2023-01-11T09:51:01.537Z,100416.91
2023-01-11T09:53:38.193Z,100412.85
2023-01-11T09:55:52.852Z,100414.70
2023-01-11T09:58:32.747Z,100414.30
2023-01-11T10:01:13.505Z,100411.84
2023-01-11T10:03:48.930Z,100405.36
2023-01-11T10:06:15.045Z,100406.36
2023-01-11T10:18:33.079Z,100397.41
2023-01-11T10:18:33.080Z,100395.08
2023-01-11T10:19:47.813Z,100397.80
2023-01-11T10:22:15.617Z,100387.36
2023-01-11T10:24:37.406Z,100382.77
2023-01-11T10:26:53.392Z,100384.30
2023-01-11T10:29:14.768Z,100374.71
2023-01-11T10:31:49.321Z,100372.41
2023-01-11T10:34:04.227Z,100369.77
2023-01-11T10:36:40.766Z,100364.17
2023-01-11T10:39:29.684Z,100359.20
2023-01-11T10:41:57.360Z,100351.70
2023-01-11T10:44:10.045Z,100345.41
2023-01-11T10:46:26.189Z,100345.56
2023-01-11T10:48:40.443Z,100339.79
2023-01-11T10:51:24.915Z,100332.70
2023-01-11T10:54:14.303Z,100326.42
2023-01-11T10:57:04.664Z,100314.20
2023-01-11T10:59:30.386Z,100309.75
2023-01-11T11:01:54.321Z,100307.41
2023-01-11T11:04:15.712Z,100305.40
2023-01-11T11:06:44.112Z,100306.50
2023-01-11T11:09:14.454Z,100297.83
2023-01-11T11:11:37.901Z,100288.27
2023-01-11T11:14:13.140Z,100279.98
2023-01-11T11:16:37.987Z,100271.37
2023-01-11T11:18:52.554Z,100262.61
2023-01-11T11:21:16.229Z,100264.59
2023-01-11T11:23:29.223Z,100260.13
2023-01-11T11:25:45.164Z,100255.46
2023-01-11T11:28:05.002Z,100254.66
2023-01-11T11:30:38.975Z,100252.82
2023-01-11T11:32:56.623Z,100249.06
2023-01-11T11:35:32.565Z,100246.06
2023-01-11T11:37:45.674Z,100245.20
2023-01-11T11:39:58.239Z,100239.23
2023-01-11T11:42:17.716Z,100235.71
2023-01-11T11:44:30.328Z,100227.16
2023-01-11T11:46:56.450Z,100223.55
2023-01-11T11:49:16.842Z,100222.38
2023-01-11T11:51:29.504Z,100219.57
2023-01-11T11:53:48.108Z,100213.09
2023-01-11T11:56:25.328Z,100221.09
2023-01-11T11:58:40.972Z,100214.27
2023-01-11T12:00:53.853Z,100215.66
2023-01-11T12:03:15.801Z,100214.73
2023-01-11T12:05:28.745Z,100211.63
2023-01-11T12:07:55.099Z,100211.30
2023-01-11T12:10:32.122Z,100211.36
2023-01-11T12:12:55.518Z,100209.02
2023-01-11T12:15:23.481Z,100211.70
2023-01-11T12:17:36.950Z,100206.46
2023-01-11T12:19:49.551Z,100200.81
2023-01-11T12:22:19.283Z,100194.84
2023-01-11T12:24:33.819Z,100202.09
2023-01-11T12:27:11.522Z,100204.39
2023-01-11T12:29:34.461Z,100199.02
2023-01-11T12:32:08.802Z,100200.34
2023-01-11T12:34:24.140Z,100197.30
2023-01-11T12:37:15.767Z,100194.69
2023-01-11T12:39:38.880Z,100195.86
2023-01-11T12:42:16.474Z,100193.62
2023-01-11T12:44:57.889Z,100192.11
2023-01-11T12:47:42.239Z,100184.25
2023-01-11T12:50:09.425Z,100182.23
2023-01-11T12:52:59.010Z,100181.38
2023-01-11T12:55:48.458Z,100182.22
2023-01-11T12:58:09.758Z,100178.70
2023-01-11T13:00:43.841Z,100176.39
2023-01-11T13:03:34.143Z,100170.76
2023-01-11T13:06:01.739Z,100173.50
2023-01-11T13:08:41.643Z,100170.90
2023-01-11T13:11:34.688Z,100161.30
2023-01-11T13:14:03.560Z,100155.13
2023-01-11T13:16:39.382Z,100147.84
2023-01-11T13:19:14.934Z,100145.98
2023-01-11T13:21:33.105Z,100141.96
2023-01-11T13:23:54.746Z,100147.28
2023-01-11T13:26:27.896Z,100146.83
2023-01-11T13:28:44.078Z,100149.29
2023-01-11T13:30:58.717Z,100149.24
2023-01-11T13:33:19.636Z,100138.45
2023-01-11T13:35:32.179Z,100139.70
2023-01-11T13:37:52.066Z,100135.82
2023-01-11T13:40:35.497Z,100133.73
2023-01-11T13:42:57.623Z,100140.67
2023-01-11T13:45:23.834Z,100145.34
2023-01-11T13:47:47.140Z,100140.17
2023-01-11T13:50:20.524Z,100136.80
2023-01-11T13:52:41.934Z,100133.22
2023-01-11T13:55:25.956Z,100137.66
2023-01-11T13:58:02.628Z,100132.20
2023-01-11T14:00:23.830Z,100123.55
2023-01-11T14:02:45.858Z,100122.77
2023-01-11T14:05:03.450Z,100121.23
2023-01-11T14:07:44.100Z,100117.55
2023-01-11T14:10:13.835Z,100120.19
2023-01-11T14:13:06.129Z,100119.63
2023-01-11T14:15:26.356Z,100126.56
2023-01-11T14:18:11.278Z,100122.26
2023-01-11T14:20:48.639Z,100127.90
2023-01-11T14:23:17.915Z,100124.66
2023-01-11T14:26:06.203Z,100116.35
2023-01-11T14:28:33.770Z,100118.47
2023-01-11T14:31:04.429Z,100112.27
2023-01-11T14:33:49.598Z,100107.40
2023-01-11T14:36:26.139Z,100102.65
2023-01-11T14:39:02.494Z,100102.48
2023-01-11T14:41:37.703Z,100106.15
2023-01-11T14:44:15.588Z,100110.19
2023-01-11T14:46:51.103Z,100101.23
2023-01-11T14:49:51.259Z,100100.21
2023-01-11T14:52:09.720Z,100095.55
2023-01-11T14:54:30.358Z,100098.88
2023-01-11T14:56:42.875Z,100095.55
2023-01-11T14:59:03.869Z,100092.41
2023-01-11T15:01:16.513Z,100094.80
2023-01-11T15:03:39.607Z,100090.02
2023-01-11T15:06:01.292Z,100095.04
2023-01-11T15:08:13.755Z,100093.52
2023-01-11T15:10:29.302Z,100095.39
2023-01-11T15:12:41.890Z,100095.58
2023-01-11T15:15:02.870Z,100099.02
2023-01-11T15:17:38.779Z,100095.75
2023-01-11T15:19:53.215Z,100088.50
2023-01-11T15:22:06.947Z,100094.70
2023-01-11T15:24:31.845Z,100096.05
2023-01-11T15:26:49.569Z,100088.54
2023-01-11T15:29:02.788Z,100089.12
2023-01-11T15:31:34.376Z,100092.35
2023-01-11T15:33:48.764Z,100091.05
2023-01-11T15:36:03.612Z,100091.30
2023-01-11T15:38:21.822Z,100095.83
2023-01-11T15:40:40.071Z,100093.88
2023-01-11T15:43:38.878Z,100094.09
2023-01-11T15:46:29.413Z,100097.02
2023-01-11T15:48:53.945Z,100097.54
2023-01-11T15:51:12.453Z,100101.80
2023-01-11T15:53:30.801Z,100104.51
2023-01-11T15:56:24.381Z,100104.09
2023-01-11T15:58:45.789Z,100109.73
2023-01-11T16:00:58.320Z,100113.16
2023-01-11T16:03:30.321Z,100112.59
2023-01-11T16:05:53.407Z,100110.73
2023-01-11T16:08:31.106Z,100112.27
2023-01-11T16:10:57.404Z,100106.23
2023-01-11T16:13:41.852Z,100102.38
2023-01-11T16:16:17.481Z,100105.64
2023-01-11T16:18:36.970Z,100109.48
2023-01-11T16:21:03.611Z,100105.09
2023-01-11T16:23:20.833Z,100103.91
2023-01-11T16:25:38.716Z,100108.37
2023-01-11T16:27:53.892Z,100102.53
2023-01-11T16:30:14.691Z,100098.39
2023-01-11T16:32:32.716Z,100094.45
2023-01-11T16:34:50.186Z,100090.13
2023-01-11T16:37:31.528Z,100093.59
2023-01-11T16:39:44.458Z,100096.48
2023-01-11T16:42:06.120Z,100099.52
2023-01-11T16:44:28.304Z,100100.77
2023-01-11T16:46:47.134Z,100101.45
2023-01-11T16:49:09.512Z,100101.26
2023-01-11T16:51:22.422Z,100100.48
2023-01-11T16:53:40.486Z,100097.27
2023-01-11T16:56:14.100Z,100093.11
2023-01-11T16:58:29.113Z,100091.10
2023-01-11T17:00:41.968Z,100095.63
2023-01-11T17:03:18.246Z,100093.42
2023-01-11T17:05:31.125Z,100098.42
2023-01-11T17:07:43.748Z,100098.46
2023-01-11T17:10:22.922Z,100102.38
2023-01-11T17:12:35.540Z,100100.59
2023-01-11T17:15:09.675Z,100099.11
2023-01-11T17:17:23.310Z,100105.46
2023-01-11T17:19:43.171Z,100098.35
2023-01-11T17:22:06.419Z,100100.77
2023-01-11T17:24:26.063Z,100099.41
2023-01-11T17:26:45.786Z,100098.38
2023-01-11T17:29:00.186Z,100103.36
2023-01-11T17:31:21.947Z,100104.48
2023-01-11T17:33:34.518Z,100103.61
2023-01-11T17:35:47.168Z,100104.60
2023-01-11T17:38:04.949Z,100100.93
2023-01-11T17:40:26.145Z,100101.55
2023-01-11T17:42:57.174Z,100102.23
2023-01-11T17:45:27.800Z,100094.31
2023-01-11T17:47:42.931Z,100093.38
2023-01-11T17:49:57.366Z,100096.31
2023-01-11T17:52:24.386Z,100089.08
2023-01-11T17:54:36.971Z,100090.54
2023-01-11T17:56:58.205Z,100088.67
2023-01-11T17:59:21.569Z,100090.67
2023-01-11T18:01:34.355Z,100092.50
2023-01-11T18:03:57.947Z,100094.90
2023-01-11T18:06:13.417Z,100093.69
2023-01-11T18:08:26.019Z,100092.58
2023-01-11T18:10:40.176Z,100096.83
2023-01-11T18:12:55.737Z,100103.08
2023-01-11T18:15:37.516Z,100106.61
2023-01-11T18:17:56.809Z,100104.82
2023-01-11T18:20:15.518Z,100108.39
2023-01-11T18:22:42.672Z,100113.41
2023-01-11T18:24:57.194Z,100108.98
2023-01-11T18:27:24.235Z,100107.88
2023-01-11T18:29:36.962Z,100108.04
2023-01-11T18:31:49.718Z,100104.09
2023-01-11T18:34:05.546Z,100105.11
2023-01-11T18:36:21.626Z,100111.77
2023-01-11T18:38:35.782Z,100114.23
2023-01-11T18:40:50.742Z,100116.58
2023-01-11T18:43:03.505Z,100112.09
2023-01-11T18:45:16.696Z,100113.63
2023-01-11T18:47:30.334Z,100110.48
2023-01-11T18:49:43.703Z,100108.67
2023-01-11T18:51:56.272Z,100111.23
2023-01-11T18:54:16.739Z,100111.92
2023-01-11T18:56:29.375Z,100117.50
2023-01-11T18:58:42.540Z,100122.67
2023-01-11T19:00:55.176Z,100119.55
2023-01-11T19:03:11.379Z,100121.95
2023-01-11T19:05:24.358Z,100127.06
2023-01-11T19:07:37.292Z,100125.63
2023-01-11T19:09:50.142Z,100132.10
2023-01-11T19:12:03.138Z,100133.04
2023-01-11T19:14:15.867Z,100133.89
2023-01-11T19:16:28.439Z,100133.51
2023-01-11T19:18:41.262Z,100137.23
2023-01-11T19:21:29.861Z,100137.12
2023-01-11T19:23:42.390Z,100140.10
2023-01-11T19:26:01.142Z,100144.23
2023-01-11T19:28:13.913Z,100146.60
2023-01-11T19:30:26.742Z,100148.60
2023-01-11T19:32:39.439Z,100149.80
2023-01-11T19:34:52.911Z,100151.19
2023-01-11T19:37:05.742Z,100150.36
2023-01-11T19:39:18.627Z,100152.56
2023-01-11T19:41:51.389Z,100153.31
2023-01-11T19:44:04.130Z,100154.69
2023-01-11T19:46:30.147Z,100159.14
2023-01-11T19:48:44.198Z,100163.13
2023-01-11T19:51:04.991Z,100164.17
2023-01-11T19:53:17.779Z,100172.00
2023-01-11T19:55:30.660Z,100172.32
2023-01-11T19:57:43.516Z,100173.16
2023-01-11T19:59:56.332Z,100173.58
2023-01-11T20:02:11.375Z,100180.15
2023-01-11T20:13:20.489Z,100190.67
2023-01-11T20:15:33.336Z,100198.13
2023-01-11T20:17:46.107Z,100196.55
2023-01-11T20:19:58.625Z,100202.10
2023-01-11T20:22:11.360Z,100203.74
2023-01-11T20:24:28.317Z,100204.31
2023-01-11T20:26:41.980Z,100204.76
2023-01-11T20:28:56.641Z,100208.04
2023-01-11T20:31:09.636Z,100208.17
2023-01-11T20:33:22.501Z,100209.45
2023-01-11T20:35:35.230Z,100210.48
2023-01-11T20:37:47.965Z,100210.46
2023-01-11T20:40:00.541Z,100213.77
2023-01-11T20:42:13.386Z,100217.42
2023-01-11T20:44:28.019Z,100217.98
2023-01-11T20:46:40.616Z,100221.80
2023-01-11T20:48:53.495Z,100222.23
2023-01-11T20:51:06.131Z,100222.40
2023-01-11T20:53:18.660Z,100222.77
2023-01-11T20:55:31.302Z,100225.35
2023-01-11T20:57:47.770Z,100229.06
2023-01-11T21:00:00.513Z,100230.80
2023-01-11T21:02:13.682Z,100227.55
2023-01-11T21:04:26.437Z,100234.15
2023-01-11T21:06:41.739Z,100235.24
2023-01-11T21:08:59.160Z,100237.33
2023-01-11T21:11:14.112Z,100237.36
2023-01-11T21:13:26.692Z,100234.61
2023-01-11T21:15:39.411Z,100236.67
2023-01-11T21:17:51.969Z,100238.72
2023-01-11T21:20:05.648Z,100234.77
2023-01-11T21:22:18.243Z,100236.27
2023-01-11T21:24:30.957Z,100233.50
2023-01-11T21:26:45.821Z,100234.57
2023-01-11T21:29:01.071Z,100239.53
2023-01-11T21:31:13.965Z,100239.15
2023-01-11T21:33:27.044Z,100237.21
2023-01-11T21:35:39.547Z,100241.27
2023-01-11T21:37:52.273Z,100238.49
2023-01-11T21:40:05.430Z,100241.75
2023-01-11T21:42:18.081Z,100240.75
2023-01-11T21:44:33.658Z,100244.71
2023-01-11T21:46:46.423Z,100245.30
2023-01-11T21:48:59.150Z,100246.96
2023-01-11T21:51:11.982Z,100246.21
2023-01-11T21:53:28.854Z,100246.70
2023-01-11T21:55:41.437Z,100252.40
2023-01-11T21:57:53.968Z,100253.49
2023-01-11T22:00:07.176Z,100252.16
2023-01-11T22:02:19.722Z,100261.62
2023-01-11T22:04:32.494Z,100258.72
2023-01-11T22:06:50.880Z,100257.17
2023-01-11T22:09:04.616Z,100264.19
2023-01-11T22:11:17.949Z,100267.08
2023-01-11T22:13:32.460Z,100267.77
2023-01-11T22:15:45.004Z,100271.02
2023-01-11T22:17:57.536Z,100270.36
2023-01-11T22:20:10.934Z,100270.00
2023-01-11T22:22:23.517Z,100270.49
2023-01-11T22:24:36.079Z,100270.98
2023-01-11T22:26:48.657Z,100275.52
2023-01-11T22:29:15.162Z,100278.95
2023-01-11T22:31:29.712Z,100285.05
2023-01-11T22:33:42.299Z,100286.30
2023-01-11T22:35:55.510Z,100284.40
2023-01-11T22:38:08.337Z,100286.82
2023-01-11T22:40:20.867Z,100289.71
2023-01-11T22:42:33.439Z,100288.02
2023-01-11T22:44:45.967Z,100291.28
2023-01-11T22:47:00.267Z,100292.02
2023-01-11T22:49:13.600Z,100292.70
2023-01-11T22:51:26.991Z,100294.07
2023-01-11T22:53:40.928Z,100294.42
2023-01-11T22:55:53.469Z,100302.17
2023-01-11T22:58:05.975Z,100304.05
2023-01-11T23:00:18.638Z,100309.15
2023-01-11T23:02:31.169Z,100303.63
2023-01-11T23:04:43.854Z,100302.23
2023-01-11T23:06:57.272Z,100301.34
2023-01-11T23:09:15.978Z,100297.56
2023-01-11T23:11:50.400Z,100296.35
2023-01-11T23:14:05.529Z,100291.22
2023-01-11T23:16:22.153Z,100292.61
2023-01-11T23:18:34.738Z,100298.24
2023-01-11T23:20:47.509Z,100296.39
2023-01-11T23:23:00.120Z,100296.17
2023-01-11T23:25:12.716Z,100291.81
2023-01-11T23:27:25.359Z,100294.71
2023-01-11T23:29:38.012Z,100295.70
2023-01-11T23:31:50.785Z,100298.43
2023-01-11T23:34:03.716Z,100299.13
2023-01-11T23:36:18.622Z,100297.19
2023-01-11T23:38:32.650Z,100298.30
2023-01-11T23:41:17.517Z,100298.41
2023-01-11T23:43:30.139Z,100297.11
2023-01-11T23:45:42.778Z,100301.54
2023-01-11T23:47:55.336Z,100306.79
2023-01-11T23:50:08.536Z,100306.73
2023-01-11T23:52:24.237Z,100307.88
2023-01-11T23:54:36.766Z,100309.02
2023-01-11T23:56:49.293Z,100308.66
2023-01-11T23:59:03.081Z,100309.26
